Terminal Aerodrome Forecast
Issued by NWS Corpus Christi, TX

Home | Current Version | Previous Version | Text Only | Print | Product List | Glossary On
Versions: 1 2 3 4 5 6 7 8 9 10 11 12 13 14 15
000
FTUS44 KCRP 282331
TAFCRP
TAF
KCRP 282331Z 2900/2924 15017G23KT P6SM SCT035
     FM290400 13010KT P6SM SCT012 BKN028
     FM291100 16012KT P6SM VCSH SCT018 BKN025
     FM291500 16015G25KT P6SM SCT030 BKN035=

USA.gov is the U.S. government's official web portal to all federal, state and local government web resources and services.